createdAt,value
2023-06-30T02:26:48.172Z,19.60
2023-06-30T02:45:28.720Z,19.50
2023-06-30T02:51:04.994Z,19.50
2023-06-30T02:53:51.932Z,19.40
2023-06-30T03:15:07.985Z,19.30
2023-06-30T03:36:51.411Z,18.60
2023-06-30T03:45:58.229Z,18.30
2023-06-30T03:54:40.902Z,18.40
2023-06-30T04:00:38.088Z,18.40
2023-06-30T05:46:46.439Z,20.80
2023-06-30T05:49:14.865Z,21.00
2023-06-30T05:51:43.111Z,21.20
2023-06-30T05:54:12.786Z,21.30
2023-06-30T05:56:40.951Z,21.40
2023-06-30T05:59:12.675Z,21.50
2023-06-30T06:01:40.954Z,21.50
2023-06-30T06:04:13.323Z,21.40
2023-06-30T06:06:41.752Z,21.50
2023-06-30T06:09:10.188Z,21.50
2023-06-30T06:11:40.608Z,21.60
2023-06-30T06:14:11.688Z,21.60
2023-06-30T06:16:42.986Z,21.60
2023-06-30T06:19:20.150Z,21.60
2023-06-30T06:21:50.511Z,21.70
2023-06-30T06:24:22.061Z,21.70
2023-06-30T06:26:52.802Z,21.70
2023-06-30T06:29:24.287Z,21.80
2023-06-30T06:31:52.814Z,21.90
2023-06-30T06:34:24.555Z,21.90
2023-06-30T06:36:52.870Z,22.00
2023-06-30T06:39:21.828Z,22.10
2023-06-30T06:41:50.079Z,22.20
2023-06-30T06:44:18.884Z,22.30
2023-06-30T06:46:47.144Z,22.30
2023-06-30T06:49:15.439Z,22.40
2023-06-30T06:51:43.597Z,22.50
2023-06-30T06:54:11.724Z,22.70
2023-06-30T06:56:39.875Z,22.90
2023-06-30T06:59:07.973Z,23.10
2023-06-30T07:01:36.343Z,23.20
2023-06-30T07:04:04.506Z,23.30
2023-06-30T07:06:33.362Z,23.50
2023-06-30T07:09:01.596Z,23.70
2023-06-30T07:11:29.720Z,23.70
2023-06-30T07:13:57.804Z,23.80
2023-06-30T07:16:25.986Z,24.00
2023-06-30T07:18:54.200Z,24.30
2023-06-30T07:21:22.652Z,24.40
2023-06-30T07:23:52.926Z,24.60
2023-06-30T07:26:21.081Z,24.80
2023-06-30T07:28:50.705Z,24.70
2023-06-30T07:31:18.995Z,24.80
2023-06-30T07:33:47.171Z,25.20
2023-06-30T07:36:15.267Z,25.10
2023-06-30T07:38:43.346Z,25.00
2023-06-30T07:41:11.491Z,25.20
2023-06-30T07:43:42.436Z,25.40
2023-06-30T07:46:10.553Z,25.50
2023-06-30T07:48:38.757Z,25.80
2023-06-30T07:51:09.552Z,26.20
2023-06-30T07:53:38.574Z,26.40
2023-06-30T07:56:06.819Z,26.50
2023-06-30T07:58:35.029Z,26.80
2023-06-30T08:01:03.186Z,26.80
2023-06-30T08:03:31.654Z,27.00
2023-06-30T08:06:01.346Z,27.30
2023-06-30T08:08:34.419Z,27.20
2023-06-30T08:11:05.646Z,27.10
2023-06-30T08:13:33.820Z,27.00
2023-06-30T08:16:02.036Z,26.40
2023-06-30T08:18:34.111Z,26.60
2023-06-30T08:21:03.743Z,26.80
2023-06-30T08:23:32.297Z,26.70
2023-06-30T08:26:03.160Z,26.90
2023-06-30T08:28:31.354Z,27.10
2023-06-30T08:30:59.562Z,27.40
2023-06-30T08:33:39.758Z,27.60
2023-06-30T08:36:09.020Z,27.60
2023-06-30T08:38:37.200Z,27.80
2023-06-30T08:41:05.412Z,27.90
2023-06-30T08:43:33.973Z,28.00
2023-06-30T08:46:04.629Z,28.20
2023-06-30T08:48:33.987Z,28.30
2023-06-30T08:51:02.487Z,28.50
2023-06-30T08:53:32.594Z,28.60
2023-06-30T08:56:02.132Z,28.70
2023-06-30T08:58:30.865Z,28.80
2023-06-30T09:00:59.251Z,28.80
2023-06-30T09:03:27.602Z,29.00
2023-06-30T09:05:58.129Z,29.10
2023-06-30T09:08:29.960Z,29.20
2023-06-30T09:11:01.121Z,29.40
2023-06-30T09:13:31.054Z,29.30
2023-06-30T09:16:00.250Z,29.40
2023-06-30T09:18:28.465Z,29.60
2023-06-30T09:20:57.856Z,29.70
2023-06-30T09:23:26.499Z,29.70
2023-06-30T09:25:55.026Z,29.80
2023-06-30T09:28:23.160Z,29.70
2023-06-30T09:30:51.317Z,29.50
2023-06-30T09:33:19.988Z,29.50
2023-06-30T09:35:50.016Z,29.20
2023-06-30T09:38:19.719Z,29.20
2023-06-30T09:40:52.228Z,29.00
2023-06-30T09:43:24.406Z,28.70
2023-06-30T09:45:56.976Z,28.30
2023-06-30T09:48:32.507Z,28.00
2023-06-30T09:51:00.776Z,27.80
2023-06-30T09:53:37.255Z,27.80
2023-06-30T09:56:05.900Z,27.80
2023-06-30T09:58:34.019Z,27.80
2023-06-30T10:01:02.165Z,27.80
2023-06-30T10:03:30.539Z,27.60
2023-06-30T10:05:59.040Z,27.50
2023-06-30T10:08:27.374Z,27.50
2023-06-30T10:10:59.241Z,27.50
2023-06-30T10:13:31.824Z,27.50
2023-06-30T10:16:03.693Z,27.30
2023-06-30T10:18:32.206Z,27.20
2023-06-30T10:21:00.379Z,27.00
2023-06-30T10:23:29.660Z,26.80
2023-06-30T10:25:58.260Z,26.70
2023-06-30T10:28:26.633Z,26.10
2023-06-30T10:30:55.470Z,25.30
2023-06-30T10:33:24.067Z,25.00
2023-06-30T10:35:52.303Z,24.80
2023-06-30T10:38:20.547Z,24.60
2023-06-30T10:40:48.838Z,24.70
2023-06-30T10:43:17.076Z,24.70
2023-06-30T10:46:04.111Z,24.80
2023-06-30T10:48:32.231Z,24.90
2023-06-30T10:51:00.334Z,24.90
2023-06-30T10:53:28.771Z,24.90
2023-06-30T10:55:57.517Z,25.00
2023-06-30T10:58:26.633Z,25.10
2023-06-30T11:01:04.789Z,25.30
2023-06-30T11:04:02.261Z,25.30
2023-06-30T11:06:33.397Z,25.30
2023-06-30T11:09:05.540Z,25.20
2023-06-30T11:11:49.312Z,25.10
2023-06-30T11:14:31.622Z,25.00
2023-06-30T11:17:13.100Z,24.90
2023-06-30T11:19:46.116Z,24.90
2023-06-30T11:22:32.681Z,24.70
2023-06-30T11:25:05.088Z,24.50
2023-06-30T11:27:33.306Z,24.20
2023-06-30T11:30:04.132Z,24.00
2023-06-30T11:32:33.420Z,23.60
2023-06-30T11:35:02.353Z,23.20
2023-06-30T11:41:21.299Z,22.90
2023-06-30T11:43:59.137Z,22.90
2023-06-30T11:46:27.459Z,23.10
2023-06-30T11:48:55.708Z,23.50
2023-06-30T11:51:24.259Z,23.80
2023-06-30T11:53:54.670Z,24.10
2023-06-30T11:56:23.336Z,24.30
2023-06-30T11:58:55.451Z,24.30
2023-06-30T12:01:23.865Z,24.30
2023-06-30T12:04:23.023Z,24.20
2023-06-30T12:06:51.683Z,24.20
2023-06-30T12:09:19.774Z,24.20
2023-06-30T12:11:48.149Z,24.20
2023-06-30T12:14:17.390Z,24.10
2023-06-30T12:16:52.326Z,24.00
2023-06-30T12:19:27.266Z,23.80
2023-06-30T12:22:11.721Z,23.60
2023-06-30T12:24:41.115Z,23.40
2023-06-30T12:27:10.203Z,23.30
2023-06-30T12:29:38.599Z,23.10
2023-06-30T12:32:16.526Z,23.10
2023-06-30T12:34:48.430Z,23.10
2023-06-30T12:37:19.138Z,23.00
2023-06-30T12:39:47.291Z,23.00
2023-06-30T12:42:15.413Z,22.90
2023-06-30T12:44:43.512Z,22.90
2023-06-30T12:47:11.879Z,22.90
2023-06-30T12:49:40.145Z,22.80
2023-06-30T12:52:08.479Z,22.80
2023-06-30T12:54:36.592Z,22.80
2023-06-30T12:57:05.830Z,22.60
2023-06-30T12:59:34.338Z,22.60
2023-06-30T13:02:03.103Z,22.60
2023-06-30T13:04:33.200Z,22.40
2023-06-30T13:07:02.851Z,22.50
2023-06-30T13:09:31.395Z,22.50
2023-06-30T13:11:59.719Z,22.50
2023-06-30T13:17:25.313Z,22.40
2023-06-30T13:19:55.282Z,22.60
2023-06-30T13:25:16.313Z,22.80
2023-06-30T13:27:58.909Z,23.10
2023-06-30T13:30:43.841Z,23.20
2023-06-30T13:33:30.682Z,23.60
2023-06-30T13:35:59.878Z,23.70
2023-06-30T13:38:28.197Z,23.80
2023-06-30T13:40:57.768Z,24.10
2023-06-30T13:43:26.060Z,24.30
2023-06-30T13:45:54.433Z,24.40
2023-06-30T13:48:23.886Z,24.40
2023-06-30T13:53:47.734Z,24.20
2023-06-30T13:56:26.646Z,24.20
2023-06-30T13:58:58.570Z,24.10
2023-06-30T14:01:32.978Z,24.10
2023-06-30T14:04:08.269Z,24.10
2023-06-30T14:06:39.838Z,24.20
2023-06-30T14:09:15.336Z,24.10
2023-06-30T14:11:53.564Z,24.20
2023-06-30T14:17:10.812Z,24.50
2023-06-30T14:22:24.290Z,24.90
2023-06-30T14:24:52.754Z,25.30
2023-06-30T14:27:21.155Z,25.60
2023-06-30T14:29:50.512Z,25.70
2023-06-30T14:32:23.711Z,25.60
2023-06-30T14:34:53.678Z,25.40
2023-06-30T14:37:24.797Z,25.30
2023-06-30T14:39:54.312Z,25.20
2023-06-30T14:42:31.258Z,25.10
2023-06-30T14:45:11.908Z,25.10
2023-06-30T14:47:40.504Z,25.10
2023-06-30T14:50:11.774Z,25.20
2023-06-30T14:52:41.598Z,25.30
2023-06-30T14:55:16.438Z,25.20
2023-06-30T14:57:45.557Z,25.10
2023-06-30T15:00:19.370Z,25.10
2023-06-30T15:02:49.005Z,25.10
2023-06-30T15:05:21.134Z,25.00
2023-06-30T15:07:52.305Z,25.00
2023-06-30T15:10:20.929Z,25.20
2023-06-30T15:12:49.608Z,25.20
2023-06-30T15:15:28.238Z,25.20
2023-06-30T15:18:02.252Z,25.10
2023-06-30T15:20:35.988Z,24.90
2023-06-30T15:23:07.865Z,24.90
2023-06-30T15:25:40.550Z,24.90
2023-06-30T15:28:10.384Z,24.90
2023-06-30T15:30:38.637Z,24.70
2023-06-30T15:33:09.883Z,24.70
2023-06-30T15:35:39.374Z,24.70
2023-06-30T15:38:09.109Z,24.70
2023-06-30T15:40:38.000Z,24.60
2023-06-30T15:43:06.317Z,24.60
2023-06-30T15:45:34.890Z,24.60
2023-06-30T15:48:03.635Z,24.70
2023-06-30T15:50:35.992Z,24.70
2023-06-30T15:53:10.763Z,24.70
2023-06-30T15:55:39.543Z,24.50
2023-06-30T15:58:10.943Z,24.50
2023-06-30T16:00:45.169Z,24.50
2023-06-30T16:03:18.765Z,24.50
2023-06-30T16:08:38.607Z,24.40
2023-06-30T16:13:59.113Z,24.30
2023-06-30T16:16:33.799Z,24.30
2023-06-30T16:19:05.561Z,24.50
2023-06-30T16:21:34.755Z,24.60
2023-06-30T16:24:06.959Z,24.80
2023-06-30T16:26:35.471Z,24.80
2023-06-30T16:29:04.386Z,24.80
2023-06-30T16:31:33.559Z,24.80
2023-06-30T16:34:03.640Z,24.70
2023-06-30T16:36:39.374Z,24.50
2023-06-30T16:39:09.432Z,24.50
2023-06-30T16:41:37.883Z,24.50
2023-06-30T16:44:06.299Z,24.40
2023-06-30T16:46:36.411Z,24.30
2023-06-30T16:49:04.749Z,24.20
2023-06-30T16:51:35.705Z,24.10
2023-06-30T16:54:05.775Z,24.00
2023-06-30T16:56:47.600Z,24.00
2023-06-30T16:59:20.226Z,23.80
2023-06-30T17:02:02.939Z,23.70
2023-06-30T17:04:32.735Z,23.70
2023-06-30T17:07:18.951Z,23.60
2023-06-30T17:12:37.503Z,23.60
2023-06-30T17:15:37.995Z,23.70
2023-06-30T17:18:21.249Z,23.70
2023-06-30T17:20:58.808Z,23.70
2023-06-30T17:23:30.059Z,23.60
2023-06-30T17:26:00.804Z,23.60
2023-06-30T17:31:28.216Z,23.40
2023-06-30T17:34:00.490Z,23.40
2023-06-30T17:42:42.450Z,23.10
2023-06-30T17:45:34.992Z,23.00
2023-06-30T17:51:32.021Z,22.90
2023-06-30T17:57:37.617Z,22.80
2023-06-30T18:03:22.123Z,22.80
2023-06-30T18:05:50.943Z,22.80
2023-06-30T18:14:06.322Z,22.80
2023-06-30T18:16:43.683Z,22.90
2023-06-30T18:19:12.229Z,22.90
2023-06-30T18:21:43.995Z,22.80
2023-06-30T18:24:17.166Z,22.80
2023-06-30T18:26:53.507Z,22.80
2023-06-30T18:29:24.330Z,22.80
2023-06-30T18:31:53.496Z,22.80
2023-06-30T18:34:22.109Z,22.80
2023-06-30T18:36:50.278Z,22.80
2023-06-30T18:39:23.312Z,22.70
2023-06-30T18:41:57.183Z,22.70
2023-06-30T18:44:27.208Z,22.60
2023-06-30T18:46:55.529Z,22.50
2023-06-30T18:49:26.128Z,22.50
2023-06-30T18:51:56.311Z,22.30
2023-06-30T18:54:25.352Z,22.30
2023-06-30T18:59:42.592Z,22.10
2023-06-30T19:02:10.960Z,22.10
2023-06-30T19:04:39.546Z,22.10
2023-06-30T19:07:07.808Z,22.00
2023-06-30T19:18:43.669Z,21.70
2023-06-30T19:21:29.345Z,21.60
2023-06-30T19:24:09.115Z,21.60
2023-06-30T19:29:33.753Z,21.40
2023-06-30T19:37:46.499Z,21.00
2023-06-30T19:40:18.118Z,21.00
2023-06-30T19:42:53.399Z,20.90
2023-06-30T19:45:29.185Z,20.90
2023-06-30T19:50:57.371Z,20.70
2023-06-30T19:53:33.040Z,20.70
2023-06-30T20:01:39.276Z,20.50
2023-06-30T20:04:07.707Z,20.50
2023-06-30T20:06:36.161Z,20.40
2023-06-30T20:09:05.378Z,20.30
2023-06-30T20:11:33.740Z,20.30
2023-06-30T20:14:02.442Z,20.30
2023-06-30T20:16:31.049Z,20.20
2023-06-30T20:19:00.140Z,20.10
2023-06-30T20:21:28.688Z,20.10
2023-06-30T20:23:57.081Z,20.10
2023-06-30T20:26:29.259Z,20.00
2023-06-30T20:28:57.654Z,20.00
2023-06-30T20:31:26.076Z,19.90
2023-06-30T20:33:54.495Z,19.80
2023-06-30T20:36:23.372Z,19.80
2023-06-30T20:38:51.813Z,19.90
2023-06-30T20:41:20.060Z,19.80
2023-06-30T20:43:48.404Z,19.70
2023-06-30T20:46:17.577Z,19.70
2023-06-30T20:48:47.318Z,19.60
2023-06-30T20:51:15.700Z,19.50
2023-06-30T20:53:44.272Z,19.40
2023-06-30T20:56:13.053Z,19.40
2023-06-30T20:58:45.653Z,19.40
2023-06-30T21:01:14.296Z,19.40
2023-06-30T21:03:43.966Z,19.40
2023-06-30T21:09:22.103Z,19.40
2023-06-30T21:15:39.411Z,19.40
2023-06-30T21:31:13.358Z,19.30
2023-06-30T21:39:23.717Z,19.20
2023-06-30T21:44:49.037Z,19.10
2023-06-30T21:53:27.794Z,18.80
2023-06-30T22:08:24.323Z,18.80
2023-06-30T22:20:41.016Z,18.50
2023-06-30T22:26:25.592Z,18.40
2023-06-30T22:28:56.684Z,18.20
2023-06-30T22:37:39.754Z,18.30
2023-06-30T22:45:23.522Z,18.20
2023-06-30T22:48:11.477Z,18.20
2023-06-30T22:51:06.326Z,18.20
2023-06-30T22:53:42.549Z,18.20
2023-06-30T22:56:24.846Z,18.20
2023-06-30T23:25:14.579Z,18.00
2023-06-30T23:28:00.299Z,17.80
2023-06-30T23:36:39.285Z,17.50
2023-06-30T23:39:30.029Z,17.50
2023-06-30T23:45:03.602Z,17.50
2023-06-30T23:53:29.821Z,17.30
2023-06-30T23:59:09.255Z,17.10
